sensor_id;sensor_type;location;lat;lon;timestamp;P1;P2;P0
65556;PMS3003;52200;53.490;14.376;2023-07-13T00:01:15;10.40;7.00;4.80
65556;PMS3003;52200;53.490;14.376;2023-07-13T00:03:41;11.00;8.00;5.20
65556;PMS3003;52200;53.490;14.376;2023-07-13T00:06:07;13.20;9.00;6.00
65556;PMS3003;52200;53.490;14.376;2023-07-13T00:08:33;11.00;7.00;5.00
65556;PMS3003;52200;53.490;14.376;2023-07-13T00:11:00;11.20;7.00;4.00
65556;PMS3003;52200;53.490;14.376;2023-07-13T00:13:26;13.00;10.00;5.20
65556;PMS3003;52200;53.490;14.376;2023-07-13T00:15:52;12.60;9.40;5.80
65556;PMS3003;52200;53.490;14.376;2023-07-13T00:18:19;13.80;9.40;6.60
65556;PMS3003;52200;53.490;14.376;2023-07-13T00:20:45;12.20;7.60;4.60
65556;PMS3003;52200;53.490;14.376;2023-07-13T00:23:10;12.50;9.00;6.00
65556;PMS3003;52200;53.490;14.376;2023-07-13T00:25:35;13.00;9.75;6.00
65556;PMS3003;52200;53.490;14.376;2023-07-13T00:28:01;12.75;8.75;5.00
65556;PMS3003;52200;53.490;14.376;2023-07-13T00:30:27;12.60;8.00;5.20
65556;PMS3003;52200;53.490;14.376;2023-07-13T00:32:52;14.75;10.00;6.00
65556;PMS3003;52200;53.490;14.376;2023-07-13T00:35:18;12.50;9.25;6.00
65556;PMS3003;52200;53.490;14.376;2023-07-13T00:37:43;13.50;8.25;6.00
65556;PMS3003;52200;53.490;14.376;2023-07-13T00:40:10;12.00;8.50;5.00
65556;PMS3003;52200;53.490;14.376;2023-07-13T00:42:37;14.00;9.60;5.80
65556;PMS3003;52200;53.490;14.376;2023-07-13T00:47:37;12.80;7.80;5.00
65556;PMS3003;52200;53.490;14.376;2023-07-13T00:50:04;13.20;8.80;4.20
65556;PMS3003;52200;53.490;14.376;2023-07-13T00:52:35;15.60;12.00;6.00
65556;PMS3003;52200;53.490;14.376;2023-07-13T00:55:03;11.60;8.00;5.80
65556;PMS3003;52200;53.490;14.376;2023-07-13T00:57:29;12.60;9.60;4.00
65556;PMS3003;52200;53.490;14.376;2023-07-13T00:59:55;10.00;7.00;5.00
65556;PMS3003;52200;53.490;14.376;2023-07-13T01:02:24;12.60;7.80;5.60
65556;PMS3003;52200;53.490;14.376;2023-07-13T01:04:50;14.00;9.20;6.00
65556;PMS3003;52200;53.490;14.376;2023-07-13T01:07:16;13.25;8.25;5.25
65556;PMS3003;52200;53.490;14.376;2023-07-13T01:09:43;13.60;7.60;5.40
65556;PMS3003;52200;53.490;14.376;2023-07-13T01:12:10;11.40;6.80;5.00
65556;PMS3003;52200;53.490;14.376;2023-07-13T01:14:36;12.00;8.00;4.40
65556;PMS3003;52200;53.490;14.376;2023-07-13T01:17:02;12.50;8.25;6.00
65556;PMS3003;52200;53.490;14.376;2023-07-13T01:21:55;12.40;8.40;4.60
65556;PMS3003;52200;53.490;14.376;2023-07-13T01:24:20;9.75;6.50;4.25
65556;PMS3003;52200;53.490;14.376;2023-07-13T01:26:46;10.75;5.75;4.00
65556;PMS3003;52200;53.490;14.376;2023-07-13T01:29:11;11.00;7.00;4.75
65556;PMS3003;52200;53.490;14.376;2023-07-13T01:31:37;11.00;7.25;5.25
65556;PMS3003;52200;53.490;14.376;2023-07-13T01:34:02;10.75;7.75;4.25
65556;PMS3003;52200;53.490;14.376;2023-07-13T01:36:27;11.75;8.50;5.00
65556;PMS3003;52200;53.490;14.376;2023-07-13T01:38:53;12.75;8.75;5.00
65556;PMS3003;52200;53.490;14.376;2023-07-13T01:41:18;10.50;6.75;4.00
65556;PMS3003;52200;53.490;14.376;2023-07-13T01:43:44;10.00;7.00;4.75
65556;PMS3003;52200;53.490;14.376;2023-07-13T01:46:09;11.25;7.00;4.25
65556;PMS3003;52200;53.490;14.376;2023-07-13T01:48:35;10.00;6.75;4.00
65556;PMS3003;52200;53.490;14.376;2023-07-13T01:51:00;11.00;7.00;4.00
65556;PMS3003;52200;53.490;14.376;2023-07-13T01:53:26;11.75;8.75;5.25
65556;PMS3003;52200;53.490;14.376;2023-07-13T01:55:51;12.00;9.00;6.00
65556;PMS3003;52200;53.490;14.376;2023-07-13T01:58:17;12.00;7.00;5.00
65556;PMS3003;52200;53.490;14.376;2023-07-13T02:00:42;13.25;9.25;6.00
65556;PMS3003;52200;53.490;14.376;2023-07-13T02:03:08;26.00;20.75;13.00
65556;PMS3003;52200;53.490;14.376;2023-07-13T02:05:33;32.00;29.00;18.00
65556;PMS3003;52200;53.490;14.376;2023-07-13T02:07:59;49.00;38.00;25.00
65556;PMS3003;52200;53.490;14.376;2023-07-13T02:10:24;54.00;40.33;25.33
65556;PMS3003;52200;53.490;14.376;2023-07-13T02:12:50;50.67;38.33;24.33
65556;PMS3003;52200;53.490;14.376;2023-07-13T02:15:16;53.75;41.50;26.75
65556;PMS3003;52200;53.490;14.376;2023-07-13T02:17:42;50.67;39.67;25.33
65556;PMS3003;52200;53.490;14.376;2023-07-13T02:20:07;47.00;37.67;24.00
65556;PMS3003;52200;53.490;14.376;2023-07-13T02:22:34;46.50;36.75;23.00
65556;PMS3003;52200;53.490;14.376;2023-07-13T02:25:00;44.60;34.00;23.00
65556;PMS3003;52200;53.490;14.376;2023-07-13T02:27:26;38.50;31.00;20.00
65556;PMS3003;52200;53.490;14.376;2023-07-13T02:29:52;34.75;29.50;20.00
65556;PMS3003;52200;53.490;14.376;2023-07-13T02:32:18;28.80;24.20;15.80
65556;PMS3003;52200;53.490;14.376;2023-07-13T02:34:43;35.50;27.50;16.00
65556;PMS3003;52200;53.490;14.376;2023-07-13T02:37:09;31.00;24.75;15.25
65556;PMS3003;52200;53.490;14.376;2023-07-13T02:39:34;30.75;24.00;15.50
65556;PMS3003;52200;53.490;14.376;2023-07-13T02:42:00;30.75;24.25;16.75
65556;PMS3003;52200;53.490;14.376;2023-07-13T02:44:26;30.25;23.25;14.25
65556;PMS3003;52200;53.490;14.376;2023-07-13T02:46:52;24.80;19.80;13.20
65556;PMS3003;52200;53.490;14.376;2023-07-13T02:49:17;22.50;18.75;10.00
65556;PMS3003;52200;53.490;14.376;2023-07-13T02:51:42;28.75;19.75;11.00
65556;PMS3003;52200;53.490;14.376;2023-07-13T02:54:08;22.00;17.25;11.00
65556;PMS3003;52200;53.490;14.376;2023-07-13T02:56:35;17.00;13.40;9.00
65556;PMS3003;52200;53.490;14.376;2023-07-13T02:59:00;17.00;13.75;7.50
65556;PMS3003;52200;53.490;14.376;2023-07-13T03:01:27;15.00;9.00;6.00
65556;PMS3003;52200;53.490;14.376;2023-07-13T03:03:53;12.00;8.00;5.00
65556;PMS3003;52200;53.490;14.376;2023-07-13T03:06:18;12.50;7.50;5.00
65556;PMS3003;52200;53.490;14.376;2023-07-13T03:08:46;12.40;7.40;4.40
65556;PMS3003;52200;53.490;14.376;2023-07-13T03:11:15;12.20;7.80;4.80
65556;PMS3003;52200;53.490;14.376;2023-07-13T03:13:43;12.60;8.60;6.00
65556;PMS3003;52200;53.490;14.376;2023-07-13T03:16:09;13.00;8.00;5.00
65556;PMS3003;52200;53.490;14.376;2023-07-13T03:18:35;15.40;9.80;4.80
65556;PMS3003;52200;53.490;14.376;2023-07-13T03:21:02;11.60;8.40;4.60
65556;PMS3003;52200;53.490;14.376;2023-07-13T03:23:28;10.80;6.80;4.20
65556;PMS3003;52200;53.490;14.376;2023-07-13T03:28:38;13.20;8.00;5.20
65556;PMS3003;52200;53.490;14.376;2023-07-13T03:31:05;12.00;7.60;5.00
65556;PMS3003;52200;53.490;14.376;2023-07-13T03:33:32;10.80;7.40;4.00
65556;PMS3003;52200;53.490;14.376;2023-07-13T03:35:58;14.25;7.00;4.75
65556;PMS3003;52200;53.490;14.376;2023-07-13T03:38:23;13.50;9.00;5.00
65556;PMS3003;52200;53.490;14.376;2023-07-13T03:40:49;11.00;7.80;4.40
65556;PMS3003;52200;53.490;14.376;2023-07-13T03:43:15;13.00;8.50;5.00
65556;PMS3003;52200;53.490;14.376;2023-07-13T03:45:40;13.50;8.00;6.00
65556;PMS3003;52200;53.490;14.376;2023-07-13T03:48:06;10.00;6.25;4.00
65556;PMS3003;52200;53.490;14.376;2023-07-13T03:50:31;12.00;8.00;4.50
65556;PMS3003;52200;53.490;14.376;2023-07-13T03:53:00;12.00;8.50;5.00
65556;PMS3003;52200;53.490;14.376;2023-07-13T03:55:25;12.80;7.00;4.40
65556;PMS3003;52200;53.490;14.376;2023-07-13T03:57:53;12.60;8.20;4.00
65556;PMS3003;52200;53.490;14.376;2023-07-13T04:00:23;10.00;6.60;4.00
65556;PMS3003;52200;53.490;14.376;2023-07-13T04:02:49;13.25;8.00;4.75
65556;PMS3003;52200;53.490;14.376;2023-07-13T04:05:15;11.75;8.00;5.25
65556;PMS3003;52200;53.490;14.376;2023-07-13T04:07:41;10.20;6.00;4.00
65556;PMS3003;52200;53.490;14.376;2023-07-13T04:10:06;11.25;6.25;4.00
65556;PMS3003;52200;53.490;14.376;2023-07-13T04:12:32;10.40;7.20;4.00
65556;PMS3003;52200;53.490;14.376;2023-07-13T04:14:58;11.50;8.00;5.00
65556;PMS3003;52200;53.490;14.376;2023-07-13T04:17:23;12.25;8.00;5.00
65556;PMS3003;52200;53.490;14.376;2023-07-13T04:19:49;12.75;8.00;4.00
65556;PMS3003;52200;53.490;14.376;2023-07-13T04:22:14;13.50;8.25;4.25
65556;PMS3003;52200;53.490;14.376;2023-07-13T04:24:40;11.75;7.75;5.00
65556;PMS3003;52200;53.490;14.376;2023-07-13T04:27:05;10.25;7.00;4.00
65556;PMS3003;52200;53.490;14.376;2023-07-13T04:29:31;12.00;7.20;5.00
65556;PMS3003;52200;53.490;14.376;2023-07-13T04:31:57;11.00;8.00;4.00
65556;PMS3003;52200;53.490;14.376;2023-07-13T04:34:22;11.00;5.00;3.00
65556;PMS3003;52200;53.490;14.376;2023-07-13T04:36:49;11.20;7.40;3.00
65556;PMS3003;52200;53.490;14.376;2023-07-13T04:39:14;11.00;5.40;3.40
65556;PMS3003;52200;53.490;14.376;2023-07-13T04:41:40;11.00;7.80;4.00
65556;PMS3003;52200;53.490;14.376;2023-07-13T04:44:06;9.50;6.25;4.00
65556;PMS3003;52200;53.490;14.376;2023-07-13T04:46:31;9.50;5.50;3.00
65556;PMS3003;52200;53.490;14.376;2023-07-13T04:48:57;10.00;5.00;2.75
65556;PMS3003;52200;53.490;14.376;2023-07-13T04:51:23;7.80;4.00;3.00
65556;PMS3003;52200;53.490;14.376;2023-07-13T04:53:49;9.00;5.00;3.75
65556;PMS3003;52200;53.490;14.376;2023-07-13T04:56:14;8.00;5.00;4.00
65556;PMS3003;52200;53.490;14.376;2023-07-13T04:58:40;10.00;5.00;3.25
65556;PMS3003;52200;53.490;14.376;2023-07-13T05:01:05;10.00;6.00;3.00
65556;PMS3003;52200;53.490;14.376;2023-07-13T05:03:32;9.00;5.00;3.00
65556;PMS3003;52200;53.490;14.376;2023-07-13T05:05:59;8.20;4.80;3.20
65556;PMS3003;52200;53.490;14.376;2023-07-13T05:08:26;7.40;4.00;2.20
65556;PMS3003;52200;53.490;14.376;2023-07-13T05:10:52;7.50;3.00;2.00
65556;PMS3003;52200;53.490;14.376;2023-07-13T05:13:18;9.75;5.75;3.00
65556;PMS3003;52200;53.490;14.376;2023-07-13T05:15:44;7.00;4.00;2.00
65556;PMS3003;52200;53.490;14.376;2023-07-13T05:18:09;7.75;3.50;2.00
65556;PMS3003;52200;53.490;14.376;2023-07-13T05:20:34;9.75;4.00;2.75
65556;PMS3003;52200;53.490;14.376;2023-07-13T05:23:00;8.25;4.50;2.00
65556;PMS3003;52200;53.490;14.376;2023-07-13T05:25:25;9.25;5.25;3.00
65556;PMS3003;52200;53.490;14.376;2023-07-13T05:27:52;8.00;4.00;1.00
65556;PMS3003;52200;53.490;14.376;2023-07-13T05:30:17;7.20;3.20;1.00
65556;PMS3003;52200;53.490;14.376;2023-07-13T05:32:43;8.00;4.00;2.00
65556;PMS3003;52200;53.490;14.376;2023-07-13T05:35:08;8.50;4.25;2.00
65556;PMS3003;52200;53.490;14.376;2023-07-13T05:37:34;7.50;3.25;2.00
65556;PMS3003;52200;53.490;14.376;2023-07-13T05:39:59;9.50;5.50;2.00
65556;PMS3003;52200;53.490;14.376;2023-07-13T05:42:25;7.00;2.75;1.00
65556;PMS3003;52200;53.490;14.376;2023-07-13T05:44:50;6.00;3.00;1.00
65556;PMS3003;52200;53.490;14.376;2023-07-13T05:47:15;9.00;4.00;2.50
65556;PMS3003;52200;53.490;14.376;2023-07-13T05:49:41;7.25;3.75;2.00
65556;PMS3003;52200;53.490;14.376;2023-07-13T05:52:06;8.25;2.75;1.00
65556;PMS3003;52200;53.490;14.376;2023-07-13T05:54:32;6.00;2.50;0.50
65556;PMS3003;52200;53.490;14.376;2023-07-13T05:56:57;5.00;2.00;1.00
65556;PMS3003;52200;53.490;14.376;2023-07-13T05:59:23;7.50;4.00;1.00
65556;PMS3003;52200;53.490;14.376;2023-07-13T06:01:49;7.75;3.50;1.75
65556;PMS3003;52200;53.490;14.376;2023-07-13T06:04:14;5.20;1.00;0.00
65556;PMS3003;52200;53.490;14.376;2023-07-13T06:06:40;5.50;2.00;1.00
65556;PMS3003;52200;53.490;14.376;2023-07-13T06:09:05;6.00;2.50;1.50
65556;PMS3003;52200;53.490;14.376;2023-07-13T06:11:31;5.00;1.25;1.00
65556;PMS3003;52200;53.490;14.376;2023-07-13T06:13:56;5.00;2.00;0.00
65556;PMS3003;52200;53.490;14.376;2023-07-13T06:16:22;6.75;3.75;1.75
65556;PMS3003;52200;53.490;14.376;2023-07-13T06:18:48;4.40;2.60;0.00
65556;PMS3003;52200;53.490;14.376;2023-07-13T06:21:18;3.50;3.00;1.00
65556;PMS3003;52200;53.490;14.376;2023-07-13T06:23:45;2.80;2.80;0.00
65556;PMS3003;52200;53.490;14.376;2023-07-13T06:26:12;4.20;3.80;0.00
65556;PMS3003;52200;53.490;14.376;2023-07-13T06:28:38;4.50;4.00;0.00
65556;PMS3003;52200;53.490;14.376;2023-07-13T06:31:05;4.00;4.00;0.00
65556;PMS3003;52200;53.490;14.376;2023-07-13T06:33:32;4.20;4.20;0.20
65556;PMS3003;52200;53.490;14.376;2023-07-13T06:35:58;4.60;4.00;0.00
65556;PMS3003;52200;53.490;14.376;2023-07-13T06:38:24;3.00;2.75;0.00
65556;PMS3003;52200;53.490;14.376;2023-07-13T06:40:49;4.75;4.25;0.00
65556;PMS3003;52200;53.490;14.376;2023-07-13T06:43:14;5.00;4.75;0.75
65556;PMS3003;52200;53.490;14.376;2023-07-13T06:45:44;4.50;3.50;0.00
65556;PMS3003;52200;53.490;14.376;2023-07-13T06:48:12;3.60;3.60;0.00
65556;PMS3003;52200;53.490;14.376;2023-07-13T06:50:38;5.00;4.00;0.00
65556;PMS3003;52200;53.490;14.376;2023-07-13T06:53:04;4.25;3.00;0.00
65556;PMS3003;52200;53.490;14.376;2023-07-13T06:55:29;5.00;3.50;0.00
65556;PMS3003;52200;53.490;14.376;2023-07-13T06:57:55;4.00;3.00;0.00
65556;PMS3003;52200;53.490;14.376;2023-07-13T07:00:20;4.00;1.00;0.00
65556;PMS3003;52200;53.490;14.376;2023-07-13T07:02:46;4.00;1.00;0.00
65556;PMS3003;52200;53.490;14.376;2023-07-13T07:05:11;4.25;2.00;0.00
65556;PMS3003;52200;53.490;14.376;2023-07-13T07:07:36;4.00;1.75;0.00
65556;PMS3003;52200;53.490;14.376;2023-07-13T07:10:02;4.00;1.50;0.00
65556;PMS3003;52200;53.490;14.376;2023-07-13T07:12:28;3.00;2.40;0.00
65556;PMS3003;52200;53.490;14.376;2023-07-13T07:14:54;4.80;1.00;0.00
65556;PMS3003;52200;53.490;14.376;2023-07-13T07:17:20;4.25;1.25;0.00
65556;PMS3003;52200;53.490;14.376;2023-07-13T07:19:45;4.75;1.00;0.00
65556;PMS3003;52200;53.490;14.376;2023-07-13T07:22:11;3.50;0.75;0.00
65556;PMS3003;52200;53.490;14.376;2023-07-13T07:24:36;4.00;3.00;0.00
65556;PMS3003;52200;53.490;14.376;2023-07-13T07:27:02;2.00;0.00;0.00
65556;PMS3003;52200;53.490;14.376;2023-07-13T07:29:27;3.75;1.75;0.00
65556;PMS3003;52200;53.490;14.376;2023-07-13T07:31:53;2.00;2.00;0.00
65556;PMS3003;52200;53.490;14.376;2023-07-13T07:34:19;3.50;3.00;0.00
65556;PMS3003;52200;53.490;14.376;2023-07-13T07:36:44;2.40;2.40;0.00
65556;PMS3003;52200;53.490;14.376;2023-07-13T07:39:10;2.00;2.00;0.00
65556;PMS3003;52200;53.490;14.376;2023-07-13T07:41:36;3.00;3.00;0.00
65556;PMS3003;52200;53.490;14.376;2023-07-13T07:44:02;4.25;3.00;0.00
65556;PMS3003;52200;53.490;14.376;2023-07-13T07:46:28;2.40;2.40;0.00
65556;PMS3003;52200;53.490;14.376;2023-07-13T07:48:54;3.75;3.00;0.00
65556;PMS3003;52200;53.490;14.376;2023-07-13T07:51:21;3.80;3.80;0.00
65556;PMS3003;52200;53.490;14.376;2023-07-13T07:53:46;3.50;3.00;0.00
65556;PMS3003;52200;53.490;14.376;2023-07-13T07:56:12;3.20;3.00;0.00
65556;PMS3003;52200;53.490;14.376;2023-07-13T07:58:38;3.00;3.00;0.00
65556;PMS3003;52200;53.490;14.376;2023-07-13T08:01:04;2.25;2.25;0.00
65556;PMS3003;52200;53.490;14.376;2023-07-13T08:03:31;3.00;2.80;0.00
65556;PMS3003;52200;53.490;14.376;2023-07-13T08:05:57;2.40;2.40;0.00
65556;PMS3003;52200;53.490;14.376;2023-07-13T08:08:22;1.75;1.75;0.00
65556;PMS3003;52200;53.490;14.376;2023-07-13T08:10:48;3.00;2.75;0.00
65556;PMS3003;52200;53.490;14.376;2023-07-13T08:13:13;3.00;2.00;0.00
65556;PMS3003;52200;53.490;14.376;2023-07-13T08:15:38;3.50;2.25;0.00
65556;PMS3003;52200;53.490;14.376;2023-07-13T08:18:05;3.00;3.00;0.00
65556;PMS3003;52200;53.490;14.376;2023-07-13T08:20:31;3.60;3.00;0.00
65556;PMS3003;52200;53.490;14.376;2023-07-13T08:22:56;3.25;3.25;0.00
65556;PMS3003;52200;53.490;14.376;2023-07-13T08:25:22;3.00;2.50;0.00
65556;PMS3003;52200;53.490;14.376;2023-07-13T08:27:48;2.40;2.40;0.00
65556;PMS3003;52200;53.490;14.376;2023-07-13T08:30:13;3.00;3.00;0.00
65556;PMS3003;52200;53.490;14.376;2023-07-13T08:32:38;3.50;2.50;0.00
65556;PMS3003;52200;53.490;14.376;2023-07-13T08:35:05;3.00;3.00;0.00
65556;PMS3003;52200;53.490;14.376;2023-07-13T08:37:31;3.00;3.00;0.00
65556;PMS3003;52200;53.490;14.376;2023-07-13T08:39:56;3.25;2.00;0.00
65556;PMS3003;52200;53.490;14.376;2023-07-13T08:42:32;2.00;2.00;0.00
65556;PMS3003;52200;53.490;14.376;2023-07-13T08:45:07;2.00;2.00;0.00
65556;PMS3003;52200;53.490;14.376;2023-07-13T08:50:27;3.60;2.40;0.00
65556;PMS3003;52200;53.490;14.376;2023-07-13T08:52:58;2.60;2.60;0.00
65556;PMS3003;52200;53.490;14.376;2023-07-13T08:55:27;1.60;1.60;0.00
65556;PMS3003;52200;53.490;14.376;2023-07-13T08:58:31;2.00;2.00;0.00
65556;PMS3003;52200;53.490;14.376;2023-07-13T09:01:11;3.80;3.00;0.00
65556;PMS3003;52200;53.490;14.376;2023-07-13T09:03:53;2.00;2.00;0.00
65556;PMS3003;52200;53.490;14.376;2023-07-13T09:06:31;2.00;2.00;0.00
65556;PMS3003;52200;53.490;14.376;2023-07-13T09:09:08;3.40;3.00;0.00
65556;PMS3003;52200;53.490;14.376;2023-07-13T09:11:47;2.80;2.80;0.00
65556;PMS3003;52200;53.490;14.376;2023-07-13T09:17:29;2.60;2.40;0.00
65556;PMS3003;52200;53.490;14.376;2023-07-13T09:20:02;2.60;2.60;0.00
65556;PMS3003;52200;53.490;14.376;2023-07-13T09:22:45;4.00;4.00;0.00
65556;PMS3003;52200;53.490;14.376;2023-07-13T09:28:15;2.80;2.80;0.00
65556;PMS3003;52200;53.490;14.376;2023-07-13T09:33:20;3.40;3.00;0.00
65556;PMS3003;52200;53.490;14.376;2023-07-13T09:35:46;3.00;3.00;0.00
65556;PMS3003;52200;53.490;14.376;2023-07-13T09:38:13;4.00;3.75;0.00
65556;PMS3003;52200;53.490;14.376;2023-07-13T09:40:43;2.00;2.00;0.00
65556;PMS3003;52200;53.490;14.376;2023-07-13T09:43:13;2.60;2.60;0.00
65556;PMS3003;52200;53.490;14.376;2023-07-13T09:45:42;3.00;3.00;0.00
65556;PMS3003;52200;53.490;14.376;2023-07-13T09:48:12;5.00;3.00;0.00
65556;PMS3003;52200;53.490;14.376;2023-07-13T09:50:39;2.00;2.00;0.00
65556;PMS3003;52200;53.490;14.376;2023-07-13T09:53:11;3.20;3.20;0.40
65556;PMS3003;52200;53.490;14.376;2023-07-13T09:55:39;3.60;3.40;0.00
65556;PMS3003;52200;53.490;14.376;2023-07-13T09:58:10;4.40;3.80;0.00
65556;PMS3003;52200;53.490;14.376;2023-07-13T10:00:59;3.60;3.60;0.00
65556;PMS3003;52200;53.490;14.376;2023-07-13T10:03:32;2.60;2.60;0.00
65556;PMS3003;52200;53.490;14.376;2023-07-13T10:06:16;2.40;2.40;0.00
65556;PMS3003;52200;53.490;14.376;2023-07-13T10:08:47;3.40;3.40;0.00
65556;PMS3003;52200;53.490;14.376;2023-07-13T10:11:18;3.00;2.60;0.00
65556;PMS3003;52200;53.490;14.376;2023-07-13T10:16:20;4.00;3.80;0.40
65556;PMS3003;52200;53.490;14.376;2023-07-13T10:18:48;5.00;4.00;0.00
65556;PMS3003;52200;53.490;14.376;2023-07-13T10:21:20;4.00;4.00;0.00
65556;PMS3003;52200;53.490;14.376;2023-07-13T10:23:50;5.00;4.00;0.00
65556;PMS3003;52200;53.490;14.376;2023-07-13T10:26:22;3.60;3.60;0.00
65556;PMS3003;52200;53.490;14.376;2023-07-13T10:28:57;4.00;3.20;0.00
65556;PMS3003;52200;53.490;14.376;2023-07-13T10:31:26;4.00;4.00;0.00
65556;PMS3003;52200;53.490;14.376;2023-07-13T10:33:52;2.50;2.50;0.00
65556;PMS3003;52200;53.490;14.376;2023-07-13T10:36:21;2.00;2.00;0.00
65556;PMS3003;52200;53.490;14.376;2023-07-13T10:38:57;6.00;5.00;1.00
65556;PMS3003;52200;53.490;14.376;2023-07-13T10:41:26;5.00;3.60;0.00
65556;PMS3003;52200;53.490;14.376;2023-07-13T10:43:55;6.20;5.00;0.00
65556;PMS3003;52200;53.490;14.376;2023-07-13T10:46:23;2.20;2.20;0.00
65556;PMS3003;52200;53.490;14.376;2023-07-13T10:48:53;3.00;3.00;0.00
65556;PMS3003;52200;53.490;14.376;2023-07-13T10:51:22;5.80;5.80;1.00
65556;PMS3003;52200;53.490;14.376;2023-07-13T10:57:08;3.00;3.00;0.00
65556;PMS3003;52200;53.490;14.376;2023-07-13T10:59:38;3.60;3.60;0.00
65556;PMS3003;52200;53.490;14.376;2023-07-13T11:02:39;5.80;5.60;1.00
65556;PMS3003;52200;53.490;14.376;2023-07-13T11:04:57;5.00;4.20;0.00
65556;PMS3003;52200;53.490;14.376;2023-07-13T11:07:27;3.50;3.50;0.00
65556;PMS3003;52200;53.490;14.376;2023-07-13T11:09:55;4.60;4.00;0.40
65556;PMS3003;52200;53.490;14.376;2023-07-13T11:27:46;6.60;4.00;0.00
65556;PMS3003;52200;53.490;14.376;2023-07-13T11:35:53;4.00;3.60;0.00
65556;PMS3003;52200;53.490;14.376;2023-07-13T11:38:38;4.00;4.00;0.00
65556;PMS3003;52200;53.490;14.376;2023-07-13T11:41:19;4.20;4.20;1.00
65556;PMS3003;52200;53.490;14.376;2023-07-13T11:43:53;4.00;4.00;0.00
65556;PMS3003;52200;53.490;14.376;2023-07-13T11:48:45;5.00;4.75;1.00
65556;PMS3003;52200;53.490;14.376;2023-07-13T11:51:16;5.80;5.00;0.80
65556;PMS3003;52200;53.490;14.376;2023-07-13T11:53:46;4.00;4.00;0.00
65556;PMS3003;52200;53.490;14.376;2023-07-13T11:56:15;4.00;3.20;0.20
65556;PMS3003;52200;53.490;14.376;2023-07-13T11:58:41;4.00;3.00;0.20
65556;PMS3003;52200;53.490;14.376;2023-07-13T12:01:10;4.25;4.00;0.00
65556;PMS3003;52200;53.490;14.376;2023-07-13T12:03:43;4.00;4.00;0.00
65556;PMS3003;52200;53.490;14.376;2023-07-13T12:09:12;3.20;3.20;0.00
65556;PMS3003;52200;53.490;14.376;2023-07-13T12:11:40;5.00;4.40;0.00
65556;PMS3003;52200;53.490;14.376;2023-07-13T12:14:12;4.80;4.00;0.00
65556;PMS3003;52200;53.490;14.376;2023-07-13T12:16:40;5.80;4.80;0.20
65556;PMS3003;52200;53.490;14.376;2023-07-13T12:19:09;3.00;3.00;0.00
65556;PMS3003;52200;53.490;14.376;2023-07-13T12:21:44;3.00;3.00;0.00
65556;PMS3003;52200;53.490;14.376;2023-07-13T12:24:15;5.40;5.00;0.00
65556;PMS3003;52200;53.490;14.376;2023-07-13T12:26:44;5.20;5.20;0.00
65556;PMS3003;52200;53.490;14.376;2023-07-13T12:29:16;3.80;3.80;0.00
65556;PMS3003;52200;53.490;14.376;2023-07-13T12:31:43;4.40;4.40;0.00
65556;PMS3003;52200;53.490;14.376;2023-07-13T12:34:11;2.80;2.60;0.00
65556;PMS3003;52200;53.490;14.376;2023-07-13T12:37:14;4.20;4.00;0.00
65556;PMS3003;52200;53.490;14.376;2023-07-13T12:39:39;4.00;4.00;0.00
65556;PMS3003;52200;53.490;14.376;2023-07-13T12:42:21;4.00;4.00;0.40
65556;PMS3003;52200;53.490;14.376;2023-07-13T12:44:56;4.00;4.00;0.00
65556;PMS3003;52200;53.490;14.376;2023-07-13T12:47:25;5.00;4.80;1.00
65556;PMS3003;52200;53.490;14.376;2023-07-13T12:49:53;3.20;3.20;0.80
65556;PMS3003;52200;53.490;14.376;2023-07-13T12:52:33;4.60;4.60;0.60
65556;PMS3003;52200;53.490;14.376;2023-07-13T12:55:07;7.20;4.80;0.60
65556;PMS3003;52200;53.490;14.376;2023-07-13T12:57:43;6.00;5.00;0.00
65556;PMS3003;52200;53.490;14.376;2023-07-13T13:00:30;4.60;3.40;0.40
65556;PMS3003;52200;53.490;14.376;2023-07-13T13:03:00;5.00;4.20;0.20
65556;PMS3003;52200;53.490;14.376;2023-07-13T13:05:30;3.00;3.00;0.60
65556;PMS3003;52200;53.490;14.376;2023-07-13T13:07:57;4.60;4.20;1.00
65556;PMS3003;52200;53.490;14.376;2023-07-13T13:10:23;4.50;4.25;0.50
65556;PMS3003;52200;53.490;14.376;2023-07-13T13:12:49;5.00;4.00;0.00
65556;PMS3003;52200;53.490;14.376;2023-07-13T13:15:15;4.60;4.60;1.00
65556;PMS3003;52200;53.490;14.376;2023-07-13T13:17:41;3.20;3.20;1.00
65556;PMS3003;52200;53.490;14.376;2023-07-13T13:20:17;6.00;5.00;1.00
65556;PMS3003;52200;53.490;14.376;2023-07-13T13:22:45;5.00;5.00;1.00
65556;PMS3003;52200;53.490;14.376;2023-07-13T13:25:11;4.00;4.00;1.00
65556;PMS3003;52200;53.490;14.376;2023-07-13T13:27:38;4.40;4.00;1.40
65556;PMS3003;52200;53.490;14.376;2023-07-13T13:30:15;4.00;4.00;0.00
65556;PMS3003;52200;53.490;14.376;2023-07-13T13:32:44;6.80;5.80;1.40
65556;PMS3003;52200;53.490;14.376;2023-07-13T13:35:18;4.00;4.00;1.00
65556;PMS3003;52200;53.490;14.376;2023-07-13T13:37:46;3.40;3.40;1.20
65556;PMS3003;52200;53.490;14.376;2023-07-13T13:40:20;4.20;3.80;1.00
65556;PMS3003;52200;53.490;14.376;2023-07-13T13:42:51;4.00;4.00;0.00
65556;PMS3003;52200;53.490;14.376;2023-07-13T13:45:18;4.20;4.00;0.00
65556;PMS3003;52200;53.490;14.376;2023-07-13T13:47:45;5.20;5.20;1.00
65556;PMS3003;52200;53.490;14.376;2023-07-13T13:50:15;5.00;5.00;1.00
65556;PMS3003;52200;53.490;14.376;2023-07-13T13:52:44;5.00;5.00;1.20
65556;PMS3003;52200;53.490;14.376;2023-07-13T13:55:17;5.25;4.50;0.50
65556;PMS3003;52200;53.490;14.376;2023-07-13T13:57:45;5.60;4.60;1.00
65556;PMS3003;52200;53.490;14.376;2023-07-13T14:00:12;5.60;5.40;0.80
65556;PMS3003;52200;53.490;14.376;2023-07-13T14:02:40;6.00;6.00;1.00
65556;PMS3003;52200;53.490;14.376;2023-07-13T14:05:11;6.60;6.60;1.00
65556;PMS3003;52200;53.490;14.376;2023-07-13T14:07:38;5.00;5.00;1.60
65556;PMS3003;52200;53.490;14.376;2023-07-13T14:10:12;4.00;4.00;1.00
65556;PMS3003;52200;53.490;14.376;2023-07-13T14:12:43;4.20;4.20;1.00
65556;PMS3003;52200;53.490;14.376;2023-07-13T14:15:15;6.20;5.60;2.00
65556;PMS3003;52200;53.490;14.376;2023-07-13T14:17:45;4.40;4.40;0.80
65556;PMS3003;52200;53.490;14.376;2023-07-13T14:20:11;4.25;4.25;0.75
65556;PMS3003;52200;53.490;14.376;2023-07-13T14:22:37;4.60;4.60;1.00
65556;PMS3003;52200;53.490;14.376;2023-07-13T14:25:03;5.40;5.00;1.00
65556;PMS3003;52200;53.490;14.376;2023-07-13T14:27:28;6.25;5.50;1.00
65556;PMS3003;52200;53.490;14.376;2023-07-13T14:29:54;5.50;5.25;1.00
65556;PMS3003;52200;53.490;14.376;2023-07-13T14:32:19;4.50;4.00;0.00
65556;PMS3003;52200;53.490;14.376;2023-07-13T14:34:45;3.25;3.25;1.00
65556;PMS3003;52200;53.490;14.376;2023-07-13T14:37:14;4.75;4.00;0.25
65556;PMS3003;52200;53.490;14.376;2023-07-13T14:39:42;4.20;4.20;1.00
65556;PMS3003;52200;53.490;14.376;2023-07-13T14:42:09;5.00;4.60;1.00
65556;PMS3003;52200;53.490;14.376;2023-07-13T14:44:35;6.25;5.00;1.00
65556;PMS3003;52200;53.490;14.376;2023-07-13T14:47:01;5.25;4.00;0.00
65556;PMS3003;52200;53.490;14.376;2023-07-13T14:49:30;5.40;5.00;1.00
65556;PMS3003;52200;53.490;14.376;2023-07-13T14:52:00;7.00;6.20;2.00
65556;PMS3003;52200;53.490;14.376;2023-07-13T14:54:29;6.00;5.00;1.00
65556;PMS3003;52200;53.490;14.376;2023-07-13T14:56:54;5.20;5.00;1.40
65556;PMS3003;52200;53.490;14.376;2023-07-13T14:59:20;6.25;5.00;1.00